createdAt,value
2019-06-20T00:00:52.117Z,100946.91
2019-06-20T00:03:43.495Z,100944.39
2019-06-20T00:06:35.184Z,100939.09
2019-06-20T00:09:26.583Z,100938.37
2019-06-20T00:12:17.915Z,100941.13
2019-06-20T00:15:09.375Z,100948.86
2019-06-20T00:18:00.793Z,100943.36
2019-06-20T00:20:52.325Z,100941.91
2019-06-20T00:23:43.799Z,100942.72
2019-06-20T00:26:35.116Z,100941.67
2019-06-20T00:29:26.912Z,100941.38
2019-06-20T00:32:18.266Z,100935.82
2019-06-20T00:35:10.052Z,100938.47
2019-06-20T00:38:01.816Z,100938.38
2019-06-20T00:40:53.076Z,100938.02
2019-06-20T00:43:44.341Z,100935.07
2019-06-20T00:46:35.840Z,100936.93
2019-06-20T00:49:27.217Z,100941.58
2019-06-20T00:52:18.814Z,100938.27
2019-06-20T00:55:10.652Z,100942.77
2019-06-20T00:58:02.279Z,100944.97
2019-06-20T01:00:54.087Z,100942.63
2019-06-20T01:03:47.533Z,100934.25
2019-06-20T01:06:39.068Z,100935.97
2019-06-20T01:09:30.323Z,100934.13
2019-06-20T01:12:21.936Z,100932.20
2019-06-20T01:15:15.170Z,100932.28
2019-06-20T01:18:07.728Z,100935.57
2019-06-20T01:21:00.255Z,100937.42
2019-06-20T01:23:51.871Z,100942.72
2019-06-20T01:26:43.464Z,100940.20
2019-06-20T01:29:34.830Z,100941.58
2019-06-20T01:32:26.347Z,100944.27
2019-06-20T01:35:18.427Z,100937.47
2019-06-20T01:38:10.117Z,100939.31
2019-06-20T01:41:05.855Z,100940.02
2019-06-20T01:43:54.766Z,100936.84
2019-06-20T01:46:46.218Z,100938.91
2019-06-20T01:49:37.866Z,100936.32
2019-06-20T01:52:29.736Z,100934.23
2019-06-20T01:55:21.394Z,100931.42
2019-06-20T01:58:13.206Z,100936.05
2019-06-20T02:01:05.546Z,100941.51
2019-06-20T02:03:56.984Z,100938.73
2019-06-20T02:06:48.516Z,100933.86
2019-06-20T02:09:40.111Z,100930.03
2019-06-20T02:12:31.733Z,100931.82
2019-06-20T02:15:23.103Z,100931.77
2019-06-20T02:18:14.534Z,100932.27
2019-06-20T02:21:06.897Z,100929.81
2019-06-20T02:23:59.589Z,100936.66
2019-06-20T02:26:50.903Z,100932.74
2019-06-20T02:29:42.214Z,100934.80
2019-06-20T02:32:33.839Z,100933.80
2019-06-20T02:35:25.609Z,100938.07
2019-06-20T02:38:17.168Z,100942.69
2019-06-20T02:41:08.719Z,100940.45
2019-06-20T02:44:00.497Z,100936.83
2019-06-20T02:46:52.997Z,100935.58
2019-06-20T02:49:44.513Z,100938.25
2019-06-20T02:52:35.971Z,100939.59
2019-06-20T02:55:27.760Z,100936.86
2019-06-20T02:58:19.485Z,100942.09
2019-06-20T03:01:11.735Z,100942.45
2019-06-20T03:04:03.487Z,100945.93
2019-06-20T03:06:55.073Z,100945.77
2019-06-20T03:09:46.729Z,100947.02
2019-06-20T03:12:39.232Z,100948.73
2019-06-20T03:15:30.848Z,100947.70
2019-06-20T03:18:22.736Z,100952.36
2019-06-20T03:21:14.139Z,100951.70
2019-06-20T03:24:05.895Z,100955.33
2019-06-20T03:26:57.463Z,100962.47
2019-06-20T03:29:48.876Z,100959.29
2019-06-20T03:32:40.447Z,100960.17
2019-06-20T03:35:32.238Z,100960.36
2019-06-20T03:38:24.176Z,100956.91
2019-06-20T03:41:16.622Z,100956.98
2019-06-20T03:44:08.484Z,100957.76
2019-06-20T03:47:00.035Z,100958.51
2019-06-20T03:49:51.528Z,100962.38
2019-06-20T03:52:42.954Z,100960.80
2019-06-20T03:55:34.587Z,100966.40
2019-06-20T03:58:25.961Z,100972.27
2019-06-20T04:01:17.582Z,100968.08
2019-06-20T04:04:09.194Z,100975.23
2019-06-20T04:07:01.025Z,100979.30
2019-06-20T04:09:52.349Z,100975.07
2019-06-20T04:12:43.981Z,100977.80
2019-06-20T04:15:35.627Z,100979.17
2019-06-20T04:18:26.912Z,100984.06
2019-06-20T04:21:18.267Z,100982.48
2019-06-20T04:24:09.614Z,100985.58
2019-06-20T04:27:01.425Z,100989.17
2019-06-20T04:29:53.691Z,100989.53
2019-06-20T04:32:45.341Z,100988.87
2019-06-20T04:35:36.667Z,100994.14
2019-06-20T04:38:28.194Z,100999.95
2019-06-20T04:41:19.920Z,100996.29
2019-06-20T04:44:11.491Z,100999.87
2019-06-20T04:47:08.468Z,101001.14
2019-06-20T04:50:00.031Z,101003.28
2019-06-20T04:52:51.683Z,101004.03
2019-06-20T04:55:43.290Z,101005.98
2019-06-20T04:58:34.873Z,101007.81
2019-06-20T05:01:26.559Z,101008.81
2019-06-20T05:04:17.768Z,101014.67
2019-06-20T05:07:18.784Z,101015.56
2019-06-20T05:10:10.478Z,101013.52
2019-06-20T05:13:02.035Z,101016.05
2019-06-20T05:15:53.619Z,101015.22
2019-06-20T05:18:45.204Z,101017.36
2019-06-20T05:21:36.975Z,101024.09
2019-06-20T05:24:28.549Z,101025.12
2019-06-20T05:27:20.067Z,101024.33
2019-06-20T05:30:12.405Z,101024.89
2019-06-20T05:33:03.970Z,101021.06
2019-06-20T05:35:55.300Z,101017.27
2019-06-20T05:38:46.985Z,101012.12
2019-06-20T05:41:39.236Z,101018.67
2019-06-20T05:44:30.503Z,101012.23
2019-06-20T05:47:21.809Z,101014.20
2019-06-20T05:50:14.280Z,101013.91
2019-06-20T05:53:05.960Z,101017.22
2019-06-20T05:55:57.629Z,101020.86
2019-06-20T05:58:49.317Z,101020.86
2019-06-20T06:01:40.837Z,101020.25
2019-06-20T06:04:32.770Z,101022.41
2019-06-20T06:07:24.060Z,101016.88
2019-06-20T06:10:16.591Z,101015.31
2019-06-20T06:13:08.310Z,101012.04
2019-06-20T06:16:00.303Z,101011.92
2019-06-20T06:18:52.183Z,101015.39
2019-06-20T06:21:43.717Z,101017.61
2019-06-20T06:24:35.117Z,101011.26
2019-06-20T06:27:26.383Z,101011.42
2019-06-20T06:30:18.499Z,101018.55
2019-06-20T06:33:10.096Z,101024.41
2019-06-20T06:36:01.724Z,101020.69
2019-06-20T06:38:52.967Z,101024.49
2019-06-20T06:41:45.173Z,101024.19
2019-06-20T06:44:36.852Z,101027.00
2019-06-20T06:47:28.439Z,101032.31
2019-06-20T06:50:20.165Z,101034.95
2019-06-20T06:53:11.610Z,101037.79
2019-06-20T06:56:03.312Z,101036.66
2019-06-20T06:58:54.660Z,101036.02
2019-06-20T07:01:46.252Z,101034.30
2019-06-20T07:04:37.709Z,101034.48
2019-06-20T07:07:29.060Z,101031.51
2019-06-20T07:10:21.172Z,101030.16
2019-06-20T07:13:12.520Z,101037.67
2019-06-20T07:16:03.793Z,101047.42
2019-06-20T07:18:55.287Z,101047.98
2019-06-20T07:21:46.670Z,101051.48
2019-06-20T07:24:37.851Z,101054.82
2019-06-20T07:27:29.131Z,101054.89
2019-06-20T07:30:20.728Z,101049.11
2019-06-20T07:33:12.183Z,101048.23
2019-06-20T07:36:04.286Z,101048.05
2019-06-20T07:38:56.376Z,101045.20
2019-06-20T07:41:47.616Z,101049.06
2019-06-20T07:44:39.088Z,101058.88
2019-06-20T07:47:30.374Z,101071.10
2019-06-20T07:50:21.610Z,101071.24
2019-06-20T07:53:12.870Z,101073.94
2019-06-20T07:56:04.136Z,101070.54
2019-06-20T07:58:56.295Z,101072.25
2019-06-20T08:01:47.586Z,101075.58
2019-06-20T08:04:38.783Z,101080.45
2019-06-20T08:07:32.377Z,101079.84
2019-06-20T08:10:25.387Z,101080.91
2019-06-20T08:13:16.785Z,101083.47
2019-06-20T08:16:08.047Z,101087.20
2019-06-20T08:18:59.508Z,101089.73
2019-06-20T08:21:51.591Z,101095.96
2019-06-20T08:24:43.046Z,101095.48
2019-06-20T08:27:53.470Z,101095.00
2019-06-20T08:30:45.500Z,101102.91
2019-06-20T08:33:37.065Z,101095.00
2019-06-20T08:36:29.021Z,101094.98
2019-06-20T08:39:21.042Z,101095.56
2019-06-20T08:42:12.723Z,101103.83
2019-06-20T08:45:04.128Z,101097.70
2019-06-20T08:47:56.526Z,101103.03
2019-06-20T08:50:48.434Z,101097.77
2019-06-20T08:53:39.720Z,101099.77
2019-06-20T08:56:31.069Z,101095.96
2019-06-20T08:59:24.703Z,101092.82
2019-06-20T09:02:15.428Z,101092.13
2019-06-20T09:05:07.276Z,101097.61
2019-06-20T09:10:54.108Z,101097.95
2019-06-20T09:13:45.729Z,101099.34
2019-06-20T09:16:37.396Z,101100.60
2019-06-20T09:19:29.548Z,101098.69
2019-06-20T09:22:21.191Z,101098.98
2019-06-20T09:25:12.982Z,101106.62
2019-06-20T09:28:04.789Z,101095.34
2019-06-20T09:30:57.118Z,101103.30
2019-06-20T09:33:48.497Z,101102.80
2019-06-20T09:36:40.046Z,101104.53
2019-06-20T09:39:31.419Z,101103.70
2019-06-20T09:42:23.146Z,101110.61
2019-06-20T09:45:15.607Z,101111.83
2019-06-20T09:48:07.149Z,101119.05
2019-06-20T09:50:58.706Z,101112.09
2019-06-20T09:53:51.875Z,101113.77
2019-06-20T09:56:46.499Z,101115.89
2019-06-20T09:59:36.469Z,101105.33
2019-06-20T10:02:27.788Z,101101.52
2019-06-20T10:05:19.578Z,101107.66
2019-06-20T10:08:10.963Z,101114.76
2019-06-20T10:11:02.467Z,101109.93
2019-06-20T10:13:54.271Z,101107.94
2019-06-20T10:16:50.315Z,101111.05
2019-06-20T10:19:38.852Z,101112.08
2019-06-20T10:22:30.165Z,101114.95
2019-06-20T10:25:21.495Z,101118.05
2019-06-20T10:28:12.829Z,101126.70
2019-06-20T10:31:04.097Z,101133.74
2019-06-20T10:33:56.828Z,101145.34
2019-06-20T10:36:50.104Z,101134.12
2019-06-20T10:39:41.750Z,101134.12
2019-06-20T10:42:33.304Z,101126.27
2019-06-20T10:45:26.452Z,101132.95
2019-06-20T10:48:17.991Z,101129.70
2019-06-20T10:51:26.960Z,101137.16
2019-06-20T10:54:18.783Z,101135.06
2019-06-20T10:57:10.275Z,101146.82
2019-06-20T11:00:02.759Z,101150.44
2019-06-20T11:02:56.478Z,101151.61
2019-06-20T11:05:48.252Z,101155.95
2019-06-20T11:08:41.730Z,101158.95
2019-06-20T11:11:33.711Z,101160.92
2019-06-20T11:14:25.054Z,101165.13
2019-06-20T11:17:16.629Z,101157.95
2019-06-20T11:20:09.009Z,101158.23
2019-06-20T11:23:00.503Z,101171.41
2019-06-20T11:25:51.919Z,101173.53
2019-06-20T11:28:44.578Z,101172.09
2019-06-20T11:31:37.632Z,101173.42
2019-06-20T11:34:30.176Z,101162.94
2019-06-20T11:37:22.186Z,101174.92
2019-06-20T11:40:14.217Z,101177.34
2019-06-20T11:43:05.840Z,101188.96
2019-06-20T11:45:57.303Z,101187.29
2019-06-20T11:48:49.428Z,101194.17
2019-06-20T11:51:41.841Z,101190.72
2019-06-20T11:54:34.490Z,101199.25
2019-06-20T11:57:26.091Z,101206.47
2019-06-20T12:00:17.816Z,101200.73
2019-06-20T12:03:09.114Z,101206.40
2019-06-20T12:06:00.398Z,101211.16
2019-06-20T12:08:52.316Z,101206.78
2019-06-20T12:11:44.537Z,101213.11
2019-06-20T12:14:36.317Z,101209.78
2019-06-20T12:17:27.696Z,101213.92
2019-06-20T12:20:19.737Z,101215.09
2019-06-20T12:23:11.394Z,101224.41
2019-06-20T12:26:02.952Z,101226.11
2019-06-20T12:28:54.114Z,101223.52
2019-06-20T12:31:45.922Z,101215.66
2019-06-20T12:34:38.816Z,101207.11
2019-06-20T12:37:30.584Z,101215.59
2019-06-20T12:40:22.631Z,101204.67
2019-06-20T12:43:15.718Z,101207.61
2019-06-20T12:46:07.351Z,101214.07
2019-06-20T12:48:58.713Z,101215.86
2019-06-20T12:51:49.978Z,101209.00
2019-06-20T12:54:43.311Z,101203.64
2019-06-20T12:57:34.753Z,101212.02
2019-06-20T13:00:26.955Z,101214.66
2019-06-20T13:03:18.530Z,101227.20
2019-06-20T13:06:10.251Z,101231.31
2019-06-20T13:09:01.967Z,101210.91
2019-06-20T13:11:55.166Z,101215.37
2019-06-20T13:14:47.581Z,101222.91
2019-06-20T13:17:40.818Z,101231.89
2019-06-20T13:20:32.289Z,101241.16
2019-06-20T13:23:23.629Z,101234.44
2019-06-20T13:26:15.141Z,101242.65
2019-06-20T13:29:06.665Z,101245.98
2019-06-20T13:32:03.900Z,101248.79
2019-06-20T13:34:51.312Z,101254.67
2019-06-20T13:37:43.888Z,101259.30
2019-06-20T13:40:36.508Z,101256.60
2019-06-20T13:43:28.035Z,101266.89
2019-06-20T13:46:20.013Z,101263.76
2019-06-20T13:49:12.531Z,101260.40
2019-06-20T13:52:03.863Z,101260.05
2019-06-20T13:54:56.149Z,101265.13
2019-06-20T13:57:49.263Z,101259.82
2019-06-20T14:00:42.807Z,101251.42
2019-06-20T14:03:34.195Z,101265.99
2019-06-20T14:06:25.737Z,101261.93
2019-06-20T14:09:17.313Z,101259.34
2019-06-20T14:12:08.504Z,101263.11
2019-06-20T14:14:59.930Z,101269.58
2019-06-20T14:17:51.475Z,101271.80
2019-06-20T14:20:43.636Z,101265.20
2019-06-20T14:23:36.580Z,101267.73
2019-06-20T14:26:28.331Z,101271.24
2019-06-20T14:29:19.984Z,101278.08
2019-06-20T14:32:21.801Z,101274.63
2019-06-20T14:35:04.436Z,101283.17
2019-06-20T14:37:56.083Z,101281.00
2019-06-20T14:40:48.228Z,101277.17
2019-06-20T14:43:39.905Z,101278.58
2019-06-20T14:46:31.319Z,101286.98
2019-06-20T14:49:24.858Z,101289.14
2019-06-20T14:52:16.413Z,101286.92
2019-06-20T14:55:08.743Z,101293.67
2019-06-20T14:58:00.483Z,101289.92
2019-06-20T15:00:52.226Z,101289.28
2019-06-20T15:03:45.571Z,101286.63
2019-06-20T15:06:36.796Z,101291.00
2019-06-20T15:09:28.144Z,101289.09
2019-06-20T15:12:19.678Z,101295.61
2019-06-20T15:15:12.418Z,101308.03
2019-06-20T15:18:03.768Z,101294.16
2019-06-20T15:20:59.004Z,101304.16
2019-06-20T15:23:49.578Z,101304.73
2019-06-20T15:26:41.740Z,101309.49
2019-06-20T15:29:33.495Z,101302.76
2019-06-20T15:32:24.943Z,101301.41
2019-06-20T15:35:16.469Z,101308.87
2019-06-20T15:38:08.345Z,101302.20
2019-06-20T15:41:00.033Z,101303.95
2019-06-20T15:43:51.802Z,101308.16
2019-06-20T15:46:43.228Z,101304.50
2019-06-20T15:49:34.801Z,101306.98
2019-06-20T15:52:26.333Z,101306.70
2019-06-20T15:55:20.866Z,101307.80
2019-06-20T15:58:12.275Z,101314.00
2019-06-20T16:01:03.911Z,101320.81
2019-06-20T16:03:55.445Z,101317.55
2019-06-20T16:06:47.231Z,101323.34
2019-06-20T16:09:39.731Z,101324.02
2019-06-20T16:12:31.349Z,101322.12
2019-06-20T16:15:24.220Z,101332.27
2019-06-20T16:18:16.181Z,101330.17
2019-06-20T16:21:07.692Z,101330.25
2019-06-20T16:23:59.080Z,101332.08
2019-06-20T16:26:50.752Z,101331.36
2019-06-20T16:29:42.474Z,101335.97
2019-06-20T16:32:33.853Z,101338.52
2019-06-20T16:35:25.171Z,101337.43
2019-06-20T16:38:16.457Z,101323.66
2019-06-20T16:41:10.122Z,101334.70
2019-06-20T16:44:01.511Z,101338.77
2019-06-20T16:46:52.980Z,101338.56
2019-06-20T16:49:44.671Z,101338.42
2019-06-20T16:52:36.270Z,101341.13
2019-06-20T16:55:27.506Z,101346.19
2019-06-20T16:58:19.156Z,101345.71
2019-06-20T17:01:10.757Z,101353.56
2019-06-20T17:04:02.291Z,101360.98
2019-06-20T17:06:53.877Z,101356.02
2019-06-20T17:09:45.087Z,101363.48
2019-06-20T17:12:36.341Z,101363.29
2019-06-20T17:15:27.718Z,101359.21
2019-06-20T17:18:19.007Z,101364.77
2019-06-20T17:21:10.295Z,101359.25
2019-06-20T17:24:01.803Z,101366.42
2019-06-20T17:26:53.942Z,101364.20
2019-06-20T17:29:45.594Z,101363.73
2019-06-20T17:32:37.187Z,101369.30
2019-06-20T17:35:28.893Z,101370.76
2019-06-20T17:38:20.340Z,101370.79
2019-06-20T17:41:12.524Z,101372.92
2019-06-20T17:44:04.044Z,101373.70
2019-06-20T17:46:55.544Z,101375.60
2019-06-20T17:49:46.882Z,101389.71
2019-06-20T17:52:38.215Z,101384.43
2019-06-20T17:55:29.484Z,101387.64
2019-06-20T17:58:25.049Z,101390.07
2019-06-20T18:01:16.552Z,101394.45
2019-06-20T18:04:27.084Z,101396.89
2019-06-20T18:07:24.063Z,101395.38
2019-06-20T18:10:15.552Z,101395.58
2019-06-20T18:13:13.266Z,101400.41
2019-06-20T18:16:25.652Z,101403.08
2019-06-20T18:19:27.815Z,101405.69
2019-06-20T18:22:19.161Z,101407.39
2019-06-20T18:25:12.011Z,101413.64
2019-06-20T18:28:03.588Z,101415.92
2019-06-20T18:30:55.621Z,101421.18
2019-06-20T18:33:46.936Z,101416.86
2019-06-20T18:36:38.491Z,101418.46
2019-06-20T18:39:32.545Z,101424.59
2019-06-20T18:42:24.545Z,101416.08
2019-06-20T18:45:16.194Z,101428.07
2019-06-20T18:48:07.744Z,101431.08
2019-06-20T18:50:59.054Z,101432.53
2019-06-20T18:53:50.800Z,101427.75
2019-06-20T18:56:42.078Z,101427.48
2019-06-20T18:59:33.351Z,101433.52
2019-06-20T19:02:25.938Z,101439.25
2019-06-20T19:05:18.082Z,101442.39
2019-06-20T19:08:09.805Z,101445.61
2019-06-20T19:11:01.173Z,101448.80
2019-06-20T19:13:52.542Z,101457.80
2019-06-20T19:16:43.776Z,101458.15
2019-06-20T19:19:35.118Z,101461.89
2019-06-20T19:22:26.809Z,101465.78
2019-06-20T19:25:19.986Z,101467.42
2019-06-20T19:28:11.291Z,101468.06
2019-06-20T19:31:02.852Z,101466.63
2019-06-20T19:33:54.125Z,101468.02
2019-06-20T19:36:46.148Z,101472.02
2019-06-20T19:39:37.501Z,101474.83
2019-06-20T19:42:28.993Z,101475.92
2019-06-20T19:45:20.796Z,101483.23
2019-06-20T19:48:12.091Z,101482.61
2019-06-20T19:51:03.796Z,101492.59
2019-06-20T19:53:55.973Z,101494.65
2019-06-20T19:56:48.238Z,101501.13
2019-06-20T19:59:39.659Z,101503.16
2019-06-20T20:02:30.977Z,101510.72
2019-06-20T20:05:23.944Z,101510.08
2019-06-20T20:08:15.280Z,101512.75
2019-06-20T20:11:07.541Z,101517.91
2019-06-20T20:13:59.152Z,101517.98
2019-06-20T20:16:51.110Z,101523.94
2019-06-20T20:19:42.602Z,101527.64
2019-06-20T20:22:34.208Z,101532.27
2019-06-20T20:25:26.167Z,101533.88
2019-06-20T20:28:19.012Z,101539.38
2019-06-20T20:31:11.664Z,101538.31
2019-06-20T20:34:03.366Z,101540.89
2019-06-20T20:36:55.086Z,101541.53
2019-06-20T20:39:46.664Z,101546.55
2019-06-20T20:42:38.261Z,101544.25
2019-06-20T20:45:29.698Z,101542.86
2019-06-20T20:48:21.366Z,101542.36
2019-06-20T20:51:12.982Z,101539.43
2019-06-20T20:54:04.520Z,101547.06
2019-06-20T20:56:55.884Z,101550.16
2019-06-20T20:59:47.518Z,101554.25
2019-06-20T21:02:38.983Z,101561.07
2019-06-20T21:05:31.763Z,101557.85
2019-06-20T21:08:23.949Z,101564.81
2019-06-20T21:11:16.520Z,101558.25
2019-06-20T21:14:09.194Z,101562.11
2019-06-20T21:17:00.498Z,101564.91
2019-06-20T21:19:52.176Z,101559.84
2019-06-20T21:22:43.686Z,101559.10
2019-06-20T21:25:35.573Z,101564.52
2019-06-20T21:28:27.296Z,101567.10
2019-06-20T21:31:18.932Z,101562.24
2019-06-20T21:34:10.529Z,101564.89
2019-06-20T21:37:01.920Z,101564.01
2019-06-20T21:39:53.277Z,101563.79
2019-06-20T21:42:44.787Z,101563.81
2019-06-20T21:45:36.153Z,101565.13
2019-06-20T21:48:28.879Z,101561.47
2019-06-20T21:51:20.334Z,101560.50
2019-06-20T21:54:13.547Z,101569.64
2019-06-20T21:57:05.114Z,101575.18
2019-06-20T21:59:57.162Z,101574.99
2019-06-20T22:02:48.739Z,101574.99
2019-06-20T22:05:40.562Z,101579.47
2019-06-20T22:08:32.282Z,101583.44
2019-06-20T22:11:23.672Z,101581.26
2019-06-20T22:14:15.286Z,101583.91
2019-06-20T22:17:07.041Z,101585.66
2019-06-20T22:19:58.574Z,101578.53
2019-06-20T22:22:50.012Z,101577.96
2019-06-20T22:25:41.553Z,101577.04
2019-06-20T22:28:33.035Z,101581.02
2019-06-20T22:31:24.990Z,101582.34
2019-06-20T22:34:16.860Z,101580.91
2019-06-20T22:37:08.388Z,101588.88
2019-06-20T22:40:00.269Z,101590.43
2019-06-20T22:42:52.113Z,101591.45
2019-06-20T22:45:43.722Z,101593.61
2019-06-20T22:48:35.364Z,101596.68
2019-06-20T22:51:26.966Z,101599.17
2019-06-20T22:54:18.636Z,101604.61
2019-06-20T22:57:10.015Z,101602.64
2019-06-20T23:00:01.595Z,101604.33
2019-06-20T23:02:54.109Z,101604.97
2019-06-20T23:05:45.541Z,101607.30
2019-06-20T23:08:36.880Z,101603.30
2019-06-20T23:11:29.002Z,101607.81
2019-06-20T23:14:20.673Z,101608.83
2019-06-20T23:17:12.034Z,101613.71
2019-06-20T23:20:03.271Z,101615.20
2019-06-20T23:22:54.834Z,101618.45
2019-06-20T23:25:48.620Z,101616.92
2019-06-20T23:28:40.377Z,101620.49
2019-06-20T23:31:32.041Z,101618.98
2019-06-20T23:34:24.370Z,101619.55
2019-06-20T23:37:16.210Z,101624.49
2019-06-20T23:40:10.309Z,101620.50
2019-06-20T23:43:02.352Z,101626.61
2019-06-20T23:45:54.045Z,101625.61
2019-06-20T23:48:46.002Z,101626.47
2019-06-20T23:51:40.797Z,101625.06
2019-06-20T23:54:32.447Z,101626.27
2019-06-20T23:57:24.073Z,101631.52
